sensor_id;sensor_type;location;lat;lon;timestamp;pressure;altitude;pressure_sealevel;temperature;humidity
69796;BME280;57073;45.650;9.612;2022-09-09T00:04:00;98861.16;;;23.52;58.16
69796;BME280;57073;45.650;9.612;2022-09-09T00:08:14;98848.63;;;23.51;57.42
69796;BME280;57073;45.650;9.612;2022-09-09T00:10:22;98854.59;;;23.53;57.19
69796;BME280;57073;45.650;9.612;2022-09-09T00:16:55;98839.88;;;23.49;57.05
69796;BME280;57073;45.650;9.612;2022-09-09T00:21:15;98833.56;;;23.40;56.93
69796;BME280;57073;45.650;9.612;2022-09-09T00:25:28;98826.09;;;23.32;57.56
69796;BME280;57073;45.650;9.612;2022-09-09T00:27:36;98828.06;;;23.31;57.07
69796;BME280;57073;45.650;9.612;2022-09-09T00:29:51;98828.47;;;23.25;57.62
69796;BME280;57073;45.650;9.612;2022-09-09T00:31:57;98820.16;;;23.30;57.53
69796;BME280;57073;45.650;9.612;2022-09-09T00:34:13;98827.34;;;23.26;57.77
69796;BME280;57073;45.650;9.612;2022-09-09T00:36:17;98828.19;;;23.26;57.92
69796;BME280;57073;45.650;9.612;2022-09-09T00:40:31;98821.38;;;23.24;57.89
69796;BME280;57073;45.650;9.612;2022-09-09T00:42:43;98817.41;;;23.30;57.56
69796;BME280;57073;45.650;9.612;2022-09-09T00:44:58;98818.22;;;23.30;57.45
69796;BME280;57073;45.650;9.612;2022-09-09T00:56:38;98799.97;;;23.26;57.88
69796;BME280;57073;45.650;9.612;2022-09-09T00:58:45;98793.81;;;23.20;57.97
69796;BME280;57073;45.650;9.612;2022-09-09T01:00:54;98799.59;;;23.19;57.81
69796;BME280;57073;45.650;9.612;2022-09-09T01:05:05;98788.66;;;23.19;57.55
69796;BME280;57073;45.650;9.612;2022-09-09T01:07:16;98786.75;;;23.19;57.98
69796;BME280;57073;45.650;9.612;2022-09-09T01:09:19;98778.34;;;23.15;58.23
69796;BME280;57073;45.650;9.612;2022-09-09T01:13:29;98779.94;;;23.16;57.99
69796;BME280;57073;45.650;9.612;2022-09-09T01:15:34;98778.53;;;23.19;57.92
69796;BME280;57073;45.650;9.612;2022-09-09T01:17:49;98782.97;;;23.06;58.25
69796;BME280;57073;45.650;9.612;2022-09-09T01:20:13;98782.47;;;23.04;58.13
69796;BME280;57073;45.650;9.612;2022-09-09T01:25:15;98784.44;;;23.12;58.39
69796;BME280;57073;45.650;9.612;2022-09-09T01:27:19;98786.81;;;23.05;58.54
69796;BME280;57073;45.650;9.612;2022-09-09T01:29:21;98785.78;;;23.01;58.97
69796;BME280;57073;45.650;9.612;2022-09-09T01:31:32;98787.09;;;23.04;59.10
69796;BME280;57073;45.650;9.612;2022-09-09T01:33:35;98784.63;;;22.93;58.95
69796;BME280;57073;45.650;9.612;2022-09-09T01:37:59;98777.38;;;22.52;60.18
69796;BME280;57073;45.650;9.612;2022-09-09T01:39:59;98782.38;;;22.73;59.72
69796;BME280;57073;45.650;9.612;2022-09-09T01:42:01;98781.81;;;22.85;59.51
69796;BME280;57073;45.650;9.612;2022-09-09T01:44:02;98789.59;;;22.69;59.81
69796;BME280;57073;45.650;9.612;2022-09-09T01:46:03;98786.34;;;22.67;60.05
69796;BME280;57073;45.650;9.612;2022-09-09T01:48:04;98775.44;;;22.53;60.26
69796;BME280;57073;45.650;9.612;2022-09-09T01:50:04;98772.00;;;22.61;60.14
69796;BME280;57073;45.650;9.612;2022-09-09T01:52:05;98776.53;;;22.29;61.28
69796;BME280;57073;45.650;9.612;2022-09-09T01:54:06;98779.63;;;22.50;60.80
69796;BME280;57073;45.650;9.612;2022-09-09T01:58:42;98779.66;;;22.36;60.89
69796;BME280;57073;45.650;9.612;2022-09-09T02:00:56;98775.31;;;22.21;61.28
69796;BME280;57073;45.650;9.612;2022-09-09T02:03:29;98762.75;;;22.34;60.50
69796;BME280;57073;45.650;9.612;2022-09-09T02:05:36;98754.56;;;22.34;60.71
69796;BME280;57073;45.650;9.612;2022-09-09T02:07:41;98756.69;;;22.37;60.57
69796;BME280;57073;45.650;9.612;2022-09-09T02:09:44;98768.50;;;22.47;60.49
69796;BME280;57073;45.650;9.612;2022-09-09T02:11:47;98768.72;;;22.36;60.38
69796;BME280;57073;45.650;9.612;2022-09-09T02:13:57;98773.84;;;22.52;60.27
69796;BME280;57073;45.650;9.612;2022-09-09T02:16:07;98785.13;;;22.36;60.63
69796;BME280;57073;45.650;9.612;2022-09-09T02:18:10;98774.06;;;22.42;59.86
69796;BME280;57073;45.650;9.612;2022-09-09T02:20:14;98764.78;;;22.43;60.19
69796;BME280;57073;45.650;9.612;2022-09-09T02:22:17;98763.78;;;22.25;60.78
69796;BME280;57073;45.650;9.612;2022-09-09T02:24:20;98761.94;;;22.20;60.89
69796;BME280;57073;45.650;9.612;2022-09-09T02:26:21;98765.56;;;22.43;60.32
69796;BME280;57073;45.650;9.612;2022-09-09T02:28:25;98772.97;;;22.43;60.37
69796;BME280;57073;45.650;9.612;2022-09-09T02:30:28;98777.19;;;22.49;60.04
69796;BME280;57073;45.650;9.612;2022-09-09T02:32:32;98784.50;;;22.39;59.95
69796;BME280;57073;45.650;9.612;2022-09-09T02:34:36;98785.88;;;22.51;59.95
69796;BME280;57073;45.650;9.612;2022-09-09T02:36:42;98783.66;;;22.53;59.69
69796;BME280;57073;45.650;9.612;2022-09-09T02:38:46;98781.78;;;22.62;59.37
69796;BME280;57073;45.650;9.612;2022-09-09T02:40:50;98785.56;;;22.66;59.30
69796;BME280;57073;45.650;9.612;2022-09-09T02:42:54;98770.94;;;22.71;59.38
69796;BME280;57073;45.650;9.612;2022-09-09T02:44:54;98783.06;;;22.78;59.23
69796;BME280;57073;45.650;9.612;2022-09-09T02:49:08;98767.41;;;22.70;59.51
69796;BME280;57073;45.650;9.612;2022-09-09T02:53:20;98773.97;;;22.69;59.28
69796;BME280;57073;45.650;9.612;2022-09-09T02:57:38;98762.59;;;22.76;59.10
69796;BME280;57073;45.650;9.612;2022-09-09T02:59:40;98758.25;;;22.75;59.19
69796;BME280;57073;45.650;9.612;2022-09-09T03:01:41;98760.66;;;22.76;59.53
69796;BME280;57073;45.650;9.612;2022-09-09T03:03:42;98748.56;;;22.69;59.31
69796;BME280;57073;45.650;9.612;2022-09-09T03:05:43;98744.25;;;22.76;59.27
69796;BME280;57073;45.650;9.612;2022-09-09T03:07:44;98747.97;;;22.81;59.06
69796;BME280;57073;45.650;9.612;2022-09-09T03:09:45;98762.00;;;22.79;59.14
69796;BME280;57073;45.650;9.612;2022-09-09T03:11:45;98762.97;;;22.83;58.94
69796;BME280;57073;45.650;9.612;2022-09-09T03:13:46;98750.41;;;22.82;58.89
69796;BME280;57073;45.650;9.612;2022-09-09T03:15:47;98748.50;;;22.83;59.18
69796;BME280;57073;45.650;9.612;2022-09-09T03:17:48;98735.06;;;22.72;59.11
69796;BME280;57073;45.650;9.612;2022-09-09T03:19:49;98732.88;;;22.61;59.91
69796;BME280;57073;45.650;9.612;2022-09-09T03:21:50;98733.44;;;22.71;59.07
69796;BME280;57073;45.650;9.612;2022-09-09T03:23:50;98736.44;;;22.61;59.47
69796;BME280;57073;45.650;9.612;2022-09-09T03:25:50;98739.19;;;22.61;59.86
69796;BME280;57073;45.650;9.612;2022-09-09T03:27:53;98724.06;;;22.64;59.43
69796;BME280;57073;45.650;9.612;2022-09-09T03:29:54;98720.53;;;22.63;59.73
69796;BME280;57073;45.650;9.612;2022-09-09T03:31:56;98719.47;;;22.50;60.22
69796;BME280;57073;45.650;9.612;2022-09-09T03:33:59;98730.97;;;22.61;60.03
69796;BME280;57073;45.650;9.612;2022-09-09T03:36:00;98737.13;;;22.67;59.81
69796;BME280;57073;45.650;9.612;2022-09-09T03:38:00;98729.66;;;22.58;60.25
69796;BME280;57073;45.650;9.612;2022-09-09T03:40:01;98728.22;;;22.61;59.52
69796;BME280;57073;45.650;9.612;2022-09-09T03:42:01;98724.63;;;22.52;60.01
69796;BME280;57073;45.650;9.612;2022-09-09T03:44:04;98716.66;;;22.64;59.64
69796;BME280;57073;45.650;9.612;2022-09-09T03:46:04;98726.59;;;22.60;59.57
69796;BME280;57073;45.650;9.612;2022-09-09T03:48:04;98714.06;;;22.59;59.58
69796;BME280;57073;45.650;9.612;2022-09-09T03:50:06;98709.41;;;22.59;59.83
69796;BME280;57073;45.650;9.612;2022-09-09T03:52:09;98706.97;;;22.58;59.62
69796;BME280;57073;45.650;9.612;2022-09-09T03:54:09;98704.91;;;22.64;59.74
69796;BME280;57073;45.650;9.612;2022-09-09T03:56:10;98710.19;;;22.60;60.05
69796;BME280;57073;45.650;9.612;2022-09-09T03:58:11;98703.06;;;22.50;59.93
69796;BME280;57073;45.650;9.612;2022-09-09T04:00:12;98709.56;;;22.40;60.70
69796;BME280;57073;45.650;9.612;2022-09-09T04:02:12;98704.75;;;22.37;60.49
69796;BME280;57073;45.650;9.612;2022-09-09T04:04:13;98698.06;;;22.30;60.66
69796;BME280;57073;45.650;9.612;2022-09-09T04:06:14;98691.13;;;22.10;61.89
69796;BME280;57073;45.650;9.612;2022-09-09T04:08:15;98684.75;;;22.00;62.04
69796;BME280;57073;45.650;9.612;2022-09-09T04:10:15;98693.47;;;22.02;62.23
69796;BME280;57073;45.650;9.612;2022-09-09T04:12:16;98696.28;;;22.11;61.85
69796;BME280;57073;45.650;9.612;2022-09-09T04:14:18;98695.88;;;22.04;62.64
69796;BME280;57073;45.650;9.612;2022-09-09T04:16:18;98693.41;;;21.94;63.33
69796;BME280;57073;45.650;9.612;2022-09-09T04:18:19;98693.66;;;22.06;62.58
69796;BME280;57073;45.650;9.612;2022-09-09T04:20:20;98695.47;;;22.11;62.84
69796;BME280;57073;45.650;9.612;2022-09-09T04:22:22;98705.84;;;22.23;62.77
69796;BME280;57073;45.650;9.612;2022-09-09T04:24:22;98715.59;;;22.29;62.24
69796;BME280;57073;45.650;9.612;2022-09-09T04:26:22;98720.84;;;22.25;62.85
69796;BME280;57073;45.650;9.612;2022-09-09T04:28:25;98728.78;;;22.27;62.84
69796;BME280;57073;45.650;9.612;2022-09-09T04:30:26;98729.94;;;22.34;62.26
69796;BME280;57073;45.650;9.612;2022-09-09T04:32:27;98734.63;;;22.34;62.21
69796;BME280;57073;45.650;9.612;2022-09-09T04:34:28;98741.50;;;22.31;62.63
69796;BME280;57073;45.650;9.612;2022-09-09T04:36:28;98757.09;;;22.31;63.03
69796;BME280;57073;45.650;9.612;2022-09-09T04:38:28;98764.19;;;22.32;63.32
69796;BME280;57073;45.650;9.612;2022-09-09T04:40:30;98767.53;;;22.29;63.42
69796;BME280;57073;45.650;9.612;2022-09-09T04:42:35;98776.72;;;22.33;63.91
69796;BME280;57073;45.650;9.612;2022-09-09T04:44:35;98779.88;;;22.26;64.57
69796;BME280;57073;45.650;9.612;2022-09-09T04:46:36;98787.75;;;22.28;64.29
69796;BME280;57073;45.650;9.612;2022-09-09T04:48:36;98793.31;;;22.36;63.85
69796;BME280;57073;45.650;9.612;2022-09-09T04:50:37;98800.91;;;22.39;63.82
69796;BME280;57073;45.650;9.612;2022-09-09T04:52:37;98822.19;;;22.15;64.19
69796;BME280;57073;45.650;9.612;2022-09-09T04:54:37;98825.50;;;22.26;63.55
69796;BME280;57073;45.650;9.612;2022-09-09T04:56:39;98814.50;;;22.31;63.26
69796;BME280;57073;45.650;9.612;2022-09-09T04:58:40;98812.13;;;22.24;62.96
69796;BME280;57073;45.650;9.612;2022-09-09T05:00:43;98819.84;;;22.22;63.77
69796;BME280;57073;45.650;9.612;2022-09-09T05:02:43;98828.56;;;21.96;59.61
69796;BME280;57073;45.650;9.612;2022-09-09T05:04:43;98829.34;;;21.55;58.51
69796;BME280;57073;45.650;9.612;2022-09-09T05:06:44;98840.06;;;21.52;58.68
69796;BME280;57073;45.650;9.612;2022-09-09T05:08:45;98849.28;;;21.37;58.66
69796;BME280;57073;45.650;9.612;2022-09-09T05:10:45;98852.72;;;20.96;59.95
69796;BME280;57073;45.650;9.612;2022-09-09T05:12:52;98853.91;;;20.71;60.63
69796;BME280;57073;45.650;9.612;2022-09-09T05:14:53;98860.00;;;20.81;60.30
69796;BME280;57073;45.650;9.612;2022-09-09T05:16:54;98863.84;;;20.61;59.60
69796;BME280;57073;45.650;9.612;2022-09-09T05:18:54;98858.00;;;20.68;60.16
69796;BME280;57073;45.650;9.612;2022-09-09T05:20:58;98859.50;;;20.36;59.75
69796;BME280;57073;45.650;9.612;2022-09-09T05:22:59;98861.63;;;20.39;60.01
69796;BME280;57073;45.650;9.612;2022-09-09T05:25:00;98869.50;;;20.22;59.45
69796;BME280;57073;45.650;9.612;2022-09-09T05:27:00;98852.84;;;19.99;59.95
69796;BME280;57073;45.650;9.612;2022-09-09T05:29:02;98854.09;;;19.88;61.25
69796;BME280;57073;45.650;9.612;2022-09-09T05:31:09;98860.84;;;19.90;61.17
69796;BME280;57073;45.650;9.612;2022-09-09T05:33:11;98871.88;;;20.04;60.91
69796;BME280;57073;45.650;9.612;2022-09-09T05:35:11;98861.31;;;19.98;60.90
69796;BME280;57073;45.650;9.612;2022-09-09T05:37:13;98856.97;;;20.21;60.25
69796;BME280;57073;45.650;9.612;2022-09-09T05:39:13;98852.53;;;20.25;59.83
69796;BME280;57073;45.650;9.612;2022-09-09T05:41:14;98851.97;;;20.28;59.94
69796;BME280;57073;45.650;9.612;2022-09-09T05:43:15;98848.66;;;20.31;60.32
69796;BME280;57073;45.650;9.612;2022-09-09T05:45:16;98856.03;;;20.30;60.70
69796;BME280;57073;45.650;9.612;2022-09-09T05:47:16;98864.75;;;20.33;60.65
69796;BME280;57073;45.650;9.612;2022-09-09T05:49:17;98866.56;;;20.37;60.89
69796;BME280;57073;45.650;9.612;2022-09-09T05:51:20;98877.19;;;20.39;59.45
69796;BME280;57073;45.650;9.612;2022-09-09T05:53:21;98870.97;;;20.14;60.35
69796;BME280;57073;45.650;9.612;2022-09-09T05:55:22;98864.63;;;19.95;61.37
69796;BME280;57073;45.650;9.612;2022-09-09T05:57:22;98865.03;;;19.83;61.89
69796;BME280;57073;45.650;9.612;2022-09-09T05:59:23;98876.47;;;20.09;60.04
69796;BME280;57073;45.650;9.612;2022-09-09T06:01:25;98880.09;;;20.23;60.46
69796;BME280;57073;45.650;9.612;2022-09-09T06:03:26;98877.91;;;20.25;60.39
69796;BME280;57073;45.650;9.612;2022-09-09T06:05:27;98883.22;;;20.11;60.23
69796;BME280;57073;45.650;9.612;2022-09-09T06:07:28;98888.34;;;20.18;60.29
69796;BME280;57073;45.650;9.612;2022-09-09T06:09:28;98900.03;;;20.19;59.97
69796;BME280;57073;45.650;9.612;2022-09-09T06:11:31;98898.88;;;20.25;59.95
69796;BME280;57073;45.650;9.612;2022-09-09T06:13:32;98904.31;;;20.25;60.30
69796;BME280;57073;45.650;9.612;2022-09-09T06:15:32;98904.97;;;20.17;60.30
69796;BME280;57073;45.650;9.612;2022-09-09T06:17:34;98912.44;;;20.30;60.50
69796;BME280;57073;45.650;9.612;2022-09-09T06:19:34;98911.91;;;20.28;59.75
69796;BME280;57073;45.650;9.612;2022-09-09T06:21:36;98929.44;;;20.22;60.84
69796;BME280;57073;45.650;9.612;2022-09-09T06:23:39;98930.00;;;20.19;61.84
69796;BME280;57073;45.650;9.612;2022-09-09T06:25:44;98926.59;;;20.08;61.85
69796;BME280;57073;45.650;9.612;2022-09-09T06:27:48;98919.81;;;20.05;62.93
69796;BME280;57073;45.650;9.612;2022-09-09T06:29:49;98920.84;;;20.09;63.93
69796;BME280;57073;45.650;9.612;2022-09-09T06:31:50;98922.16;;;20.12;63.87
69796;BME280;57073;45.650;9.612;2022-09-09T06:33:51;98924.19;;;20.01;63.65
69796;BME280;57073;45.650;9.612;2022-09-09T06:35:53;98931.31;;;19.97;66.77
69796;BME280;57073;45.650;9.612;2022-09-09T06:37:54;98940.66;;;19.91;67.86
69796;BME280;57073;45.650;9.612;2022-09-09T06:39:54;98918.34;;;19.89;69.56
69796;BME280;57073;45.650;9.612;2022-09-09T06:41:55;98912.03;;;19.94;68.15
69796;BME280;57073;45.650;9.612;2022-09-09T06:43:55;98900.31;;;19.93;70.19
69796;BME280;57073;45.650;9.612;2022-09-09T06:46:06;98891.19;;;19.15;69.27
69796;BME280;57073;45.650;9.612;2022-09-09T06:48:08;98887.50;;;19.01;71.14
69796;BME280;57073;45.650;9.612;2022-09-09T06:50:09;98893.88;;;19.20;74.47
69796;BME280;57073;45.650;9.612;2022-09-09T06:52:10;98891.16;;;19.20;71.23
69796;BME280;57073;45.650;9.612;2022-09-09T06:54:11;98882.34;;;19.33;71.49
69796;BME280;57073;45.650;9.612;2022-09-09T06:56:21;98879.66;;;19.28;71.48
69796;BME280;57073;45.650;9.612;2022-09-09T06:58:23;98876.78;;;19.14;71.34
69796;BME280;57073;45.650;9.612;2022-09-09T07:00:23;98864.72;;;18.91;70.40
69796;BME280;57073;45.650;9.612;2022-09-09T07:02:24;98857.13;;;18.83;69.51
69796;BME280;57073;45.650;9.612;2022-09-09T07:04:25;98861.47;;;18.89;70.50
69796;BME280;57073;45.650;9.612;2022-09-09T07:06:27;98856.41;;;19.12;70.20
69796;BME280;57073;45.650;9.612;2022-09-09T07:08:28;98854.31;;;19.04;69.19
69796;BME280;57073;45.650;9.612;2022-09-09T07:10:28;98862.78;;;19.31;68.98
69796;BME280;57073;45.650;9.612;2022-09-09T07:12:29;98851.56;;;19.38;68.39
69796;BME280;57073;45.650;9.612;2022-09-09T07:14:29;98849.06;;;19.71;68.43
69796;BME280;57073;45.650;9.612;2022-09-09T07:16:30;98860.75;;;19.77;67.33
69796;BME280;57073;45.650;9.612;2022-09-09T07:18:33;98868.44;;;20.18;68.14
69796;BME280;57073;45.650;9.612;2022-09-09T07:20:34;98870.88;;;20.43;66.29
69796;BME280;57073;45.650;9.612;2022-09-09T07:22:35;98875.63;;;20.33;64.48
69796;BME280;57073;45.650;9.612;2022-09-09T07:24:35;98875.84;;;20.12;65.99
69796;BME280;57073;45.650;9.612;2022-09-09T07:26:36;98886.03;;;20.30;66.38
69796;BME280;57073;45.650;9.612;2022-09-09T07:28:37;98872.84;;;19.89;65.80
69796;BME280;57073;45.650;9.612;2022-09-09T07:30:38;98878.59;;;20.36;66.18
69796;BME280;57073;45.650;9.612;2022-09-09T07:32:39;98880.84;;;20.29;66.11
69796;BME280;57073;45.650;9.612;2022-09-09T07:34:40;98874.69;;;20.42;65.18
69796;BME280;57073;45.650;9.612;2022-09-09T07:36:40;98874.34;;;20.49;65.82
69796;BME280;57073;45.650;9.612;2022-09-09T07:38:44;98877.50;;;20.56;65.53
69796;BME280;57073;45.650;9.612;2022-09-09T07:40:45;98879.09;;;20.38;66.31
69796;BME280;57073;45.650;9.612;2022-09-09T07:42:46;98878.66;;;20.31;66.84
69796;BME280;57073;45.650;9.612;2022-09-09T07:44:46;98870.88;;;20.43;67.17
69796;BME280;57073;45.650;9.612;2022-09-09T07:46:47;98876.31;;;20.43;67.13
69796;BME280;57073;45.650;9.612;2022-09-09T07:48:49;98878.94;;;20.73;66.01
69796;BME280;57073;45.650;9.612;2022-09-09T07:50:51;98890.00;;;20.81;64.64
69796;BME280;57073;45.650;9.612;2022-09-09T07:52:52;98887.88;;;20.78;65.04
69796;BME280;57073;45.650;9.612;2022-09-09T07:54:53;98889.91;;;20.86;63.02
69796;BME280;57073;45.650;9.612;2022-09-09T07:56:53;98888.72;;;20.74;61.67
69796;BME280;57073;45.650;9.612;2022-09-09T07:58:55;98900.59;;;20.83;60.80
69796;BME280;57073;45.650;9.612;2022-09-09T08:00:56;98900.13;;;20.57;60.04
69796;BME280;57073;45.650;9.612;2022-09-09T08:02:57;98896.06;;;20.54;60.76
69796;BME280;57073;45.650;9.612;2022-09-09T08:04:58;98897.59;;;20.41;61.98
69796;BME280;57073;45.650;9.612;2022-09-09T08:07:00;98903.06;;;20.41;61.51
69796;BME280;57073;45.650;9.612;2022-09-09T08:09:01;98903.44;;;20.54;61.75
69796;BME280;57073;45.650;9.612;2022-09-09T08:11:10;98912.31;;;20.64;61.65
69796;BME280;57073;45.650;9.612;2022-09-09T08:13:11;98913.19;;;20.60;60.71
69796;BME280;57073;45.650;9.612;2022-09-09T08:15:14;98918.16;;;20.77;61.39
69796;BME280;57073;45.650;9.612;2022-09-09T08:17:14;98923.38;;;20.73;59.60
69796;BME280;57073;45.650;9.612;2022-09-09T08:19:15;98918.81;;;20.87;59.78
69796;BME280;57073;45.650;9.612;2022-09-09T08:21:18;98917.34;;;20.76;59.33
69796;BME280;57073;45.650;9.612;2022-09-09T08:23:20;98924.50;;;20.91;59.50
69796;BME280;57073;45.650;9.612;2022-09-09T08:25:21;98923.03;;;20.80;59.24
69796;BME280;57073;45.650;9.612;2022-09-09T08:27:21;98932.09;;;21.13;58.81
69796;BME280;57073;45.650;9.612;2022-09-09T08:29:23;98923.69;;;21.29;59.35
69796;BME280;57073;45.650;9.612;2022-09-09T08:31:28;98930.44;;;21.31;58.72
69796;BME280;57073;45.650;9.612;2022-09-09T08:33:29;98920.22;;;21.23;59.06
69796;BME280;57073;45.650;9.612;2022-09-09T08:35:29;98926.69;;;21.46;59.80
69796;BME280;57073;45.650;9.612;2022-09-09T08:37:32;98930.59;;;21.40;59.40
69796;BME280;57073;45.650;9.612;2022-09-09T08:39:33;98931.19;;;21.37;59.64
69796;BME280;57073;45.650;9.612;2022-09-09T08:49:02;98934.94;;;21.60;60.27
69796;BME280;57073;45.650;9.612;2022-09-09T08:51:07;98923.63;;;21.67;59.42
69796;BME280;57073;45.650;9.612;2022-09-09T08:53:17;98931.84;;;21.67;58.66
69796;BME280;57073;45.650;9.612;2022-09-09T08:57:35;98927.16;;;22.28;58.58
69796;BME280;57073;45.650;9.612;2022-09-09T08:59:35;98925.84;;;22.25;55.29
69796;BME280;57073;45.650;9.612;2022-09-09T09:10:47;98925.03;;;22.66;53.57
69796;BME280;57073;45.650;9.612;2022-09-09T09:12:49;98927.19;;;22.42;53.65
69796;BME280;57073;45.650;9.612;2022-09-09T09:14:49;98929.97;;;22.78;53.48
69796;BME280;57073;45.650;9.612;2022-09-09T09:16:57;98931.78;;;22.83;53.32
69796;BME280;57073;45.650;9.612;2022-09-09T09:18:59;98925.66;;;22.49;52.36
69796;BME280;57073;45.650;9.612;2022-09-09T09:21:12;98928.72;;;22.84;52.45
69796;BME280;57073;45.650;9.612;2022-09-09T09:23:22;98923.81;;;23.23;52.96
69796;BME280;57073;45.650;9.612;2022-09-09T09:25:32;98928.03;;;23.51;52.64
69796;BME280;57073;45.650;9.612;2022-09-09T09:27:36;98920.75;;;23.47;50.86
69796;BME280;57073;45.650;9.612;2022-09-09T09:29:42;98921.19;;;23.63;51.06
69796;BME280;57073;45.650;9.612;2022-09-09T09:31:55;98924.03;;;23.58;48.66
69796;BME280;57073;45.650;9.612;2022-09-09T09:33:57;98924.91;;;23.67;48.21
69796;BME280;57073;45.650;9.612;2022-09-09T09:35:59;98924.84;;;23.13;49.39
69796;BME280;57073;45.650;9.612;2022-09-09T09:38:00;98913.50;;;23.06;48.86
69796;BME280;57073;45.650;9.612;2022-09-09T09:40:09;98917.28;;;23.55;49.95
69796;BME280;57073;45.650;9.612;2022-09-09T09:42:14;98907.84;;;23.70;49.52
69796;BME280;57073;45.650;9.612;2022-09-09T09:44:29;98917.75;;;23.80;49.02
69796;BME280;57073;45.650;9.612;2022-09-09T09:46:31;98918.56;;;23.80;47.96
69796;BME280;57073;45.650;9.612;2022-09-09T09:48:32;98918.16;;;23.96;47.74
69796;BME280;57073;45.650;9.612;2022-09-09T09:50:33;98922.00;;;23.95;47.24
69796;BME280;57073;45.650;9.612;2022-09-09T09:52:34;98922.09;;;24.12;48.08
69796;BME280;57073;45.650;9.612;2022-09-09T09:54:41;98914.91;;;24.25;48.65
69796;BME280;57073;45.650;9.612;2022-09-09T09:56:43;98917.59;;;24.16;47.61
69796;BME280;57073;45.650;9.612;2022-09-09T10:00:51;98919.47;;;23.76;46.31
69796;BME280;57073;45.650;9.612;2022-09-09T10:02:52;98914.44;;;23.91;46.16
69796;BME280;57073;45.650;9.612;2022-09-09T10:05:16;98916.72;;;23.98;45.59
69796;BME280;57073;45.650;9.612;2022-09-09T10:07:19;98910.69;;;24.19;46.09
69796;BME280;57073;45.650;9.612;2022-09-09T10:09:27;98909.31;;;23.99;43.86
69796;BME280;57073;45.650;9.612;2022-09-09T10:11:52;98904.94;;;23.98;44.54
69796;BME280;57073;45.650;9.612;2022-09-09T10:18:38;98884.56;;;24.21;45.98
69796;BME280;57073;45.650;9.612;2022-09-09T10:25:33;98885.88;;;24.24;46.27
69796;BME280;57073;45.650;9.612;2022-09-09T10:28:13;98884.78;;;23.71;45.32
69796;BME280;57073;45.650;9.612;2022-09-09T10:30:19;98886.78;;;23.79;44.68
69796;BME280;57073;45.650;9.612;2022-09-09T10:36:50;98878.34;;;23.89;44.52
69796;BME280;57073;45.650;9.612;2022-09-09T10:43:13;98878.34;;;23.89;44.54
69796;BME280;57073;45.650;9.612;2022-09-09T10:48:07;98877.69;;;23.92;44.79
69796;BME280;57073;45.650;9.612;2022-09-09T10:55:13;98860.69;;;24.13;44.79
69796;BME280;57073;45.650;9.612;2022-09-09T10:57:39;98866.66;;;24.15;44.00
69796;BME280;57073;45.650;9.612;2022-09-09T10:59:45;98863.94;;;24.24;44.95
69796;BME280;57073;45.650;9.612;2022-09-09T11:01:52;98867.63;;;24.19;44.06
69796;BME280;57073;45.650;9.612;2022-09-09T11:04:15;98869.25;;;24.20;44.62
69796;BME280;57073;45.650;9.612;2022-09-09T11:06:19;98872.16;;;24.24;44.07
69796;BME280;57073;45.650;9.612;2022-09-09T11:08:24;98867.97;;;24.26;43.72
69796;BME280;57073;45.650;9.612;2022-09-09T11:12:46;98863.47;;;24.30;43.99
69796;BME280;57073;45.650;9.612;2022-09-09T11:14:59;98858.91;;;24.17;43.26
69796;BME280;57073;45.650;9.612;2022-09-09T11:17:45;98860.16;;;24.02;42.45
69796;BME280;57073;45.650;9.612;2022-09-09T11:19:47;98859.59;;;23.83;43.16
69796;BME280;57073;45.650;9.612;2022-09-09T11:21:49;98864.06;;;23.79;43.20
69796;BME280;57073;45.650;9.612;2022-09-09T11:24:22;98856.91;;;24.00;43.58
69796;BME280;57073;45.650;9.612;2022-09-09T11:26:35;98851.81;;;24.16;43.42
69796;BME280;57073;45.650;9.612;2022-09-09T11:40:18;98841.44;;;24.53;45.15
69796;BME280;57073;45.650;9.612;2022-09-09T11:42:23;98834.19;;;24.57;44.28
69796;BME280;57073;45.650;9.612;2022-09-09T11:44:29;98831.91;;;24.59;44.00
69796;BME280;57073;45.650;9.612;2022-09-09T11:46:36;98835.13;;;24.53;43.15
69796;BME280;57073;45.650;9.612;2022-09-09T11:48:43;98835.28;;;24.47;42.80
69796;BME280;57073;45.650;9.612;2022-09-09T11:50:45;98829.44;;;24.49;43.02
69796;BME280;57073;45.650;9.612;2022-09-09T11:52:47;98828.63;;;24.40;41.32
69796;BME280;57073;45.650;9.612;2022-09-09T11:54:49;98832.50;;;24.39;41.28
69796;BME280;57073;45.650;9.612;2022-09-09T11:56:50;98835.91;;;24.44;42.64
69796;BME280;57073;45.650;9.612;2022-09-09T11:59:02;98824.78;;;24.41;41.38
69796;BME280;57073;45.650;9.612;2022-09-09T12:01:25;98822.81;;;24.33;41.71
69796;BME280;57073;45.650;9.612;2022-09-09T12:03:48;98821.03;;;24.28;41.24
69796;BME280;57073;45.650;9.612;2022-09-09T12:05:50;98825.22;;;24.25;41.08
69796;BME280;57073;45.650;9.612;2022-09-09T12:07:56;98826.84;;;24.35;41.33
69796;BME280;57073;45.650;9.612;2022-09-09T12:10:02;98815.75;;;24.40;41.62
69796;BME280;57073;45.650;9.612;2022-09-09T12:16:41;98811.25;;;24.62;42.34
69796;BME280;57073;45.650;9.612;2022-09-09T12:18:43;98814.66;;;24.67;42.74
69796;BME280;57073;45.650;9.612;2022-09-09T12:20:54;98819.63;;;24.65;41.60
69796;BME280;57073;45.650;9.612;2022-09-09T12:28:16;98803.00;;;24.62;41.49
69796;BME280;57073;45.650;9.612;2022-09-09T12:30:18;98799.31;;;24.66;41.30
69796;BME280;57073;45.650;9.612;2022-09-09T12:32:24;98807.72;;;24.70;42.17
69796;BME280;57073;45.650;9.612;2022-09-09T12:34:47;98797.84;;;24.78;42.20
69796;BME280;57073;45.650;9.612;2022-09-09T12:36:55;98789.63;;;24.78;41.97
69796;BME280;57073;45.650;9.612;2022-09-09T12:39:10;98792.84;;;24.80;41.73
69796;BME280;57073;45.650;9.612;2022-09-09T12:41:24;98791.09;;;24.84;42.03
69796;BME280;57073;45.650;9.612;2022-09-09T12:43:26;98785.75;;;24.87;43.36
69796;BME280;57073;45.650;9.612;2022-09-09T12:45:30;98784.78;;;24.92;42.56
69796;BME280;57073;45.650;9.612;2022-09-09T12:49:47;98770.09;;;24.97;42.38
69796;BME280;57073;45.650;9.612;2022-09-09T12:51:49;98785.09;;;24.99;41.34
69796;BME280;57073;45.650;9.612;2022-09-09T12:53:51;98776.53;;;24.92;41.30